createdAt,value
2023-03-07T00:02:06.998Z,100246.09
2023-03-07T00:04:35.358Z,100235.13
2023-03-07T00:07:03.280Z,100241.13
2023-03-07T00:09:32.644Z,100229.69
2023-03-07T00:12:00.685Z,100241.97
2023-03-07T00:14:28.814Z,100220.00
2023-03-07T00:16:56.785Z,100232.50
2023-03-07T00:19:27.177Z,100221.59
2023-03-07T00:21:55.272Z,100216.16
2023-03-07T00:24:23.194Z,100217.13
2023-03-07T00:26:52.512Z,100209.25
2023-03-07T00:29:20.612Z,100230.59
2023-03-07T00:31:49.853Z,100212.06
2023-03-07T00:34:17.898Z,100187.03
2023-03-07T00:36:45.907Z,100207.66
2023-03-07T00:39:13.828Z,100194.56
2023-03-07T00:41:41.874Z,100206.31
2023-03-07T00:44:11.199Z,100196.50
2023-03-07T00:46:39.214Z,100186.19
2023-03-07T00:49:07.653Z,100197.47
2023-03-07T00:51:35.665Z,100198.19
2023-03-07T00:54:04.823Z,100182.31
2023-03-07T00:56:32.968Z,100181.47
2023-03-07T00:59:00.954Z,100181.94
2023-03-07T01:01:30.360Z,100184.19
2023-03-07T01:03:58.651Z,100181.78
2023-03-07T01:06:27.473Z,100169.53
2023-03-07T01:08:57.379Z,100175.97
2023-03-07T01:11:25.626Z,100169.03
2023-03-07T01:13:55.918Z,100173.69
2023-03-07T01:16:25.070Z,100174.00
2023-03-07T01:18:55.515Z,100179.28
2023-03-07T01:21:24.640Z,100169.06
2023-03-07T01:23:52.767Z,100166.63
2023-03-07T01:26:23.676Z,100173.66
2023-03-07T01:28:51.892Z,100155.53
2023-03-07T01:31:20.093Z,100157.13
2023-03-07T01:33:48.646Z,100154.16
2023-03-07T01:36:19.861Z,100152.53
2023-03-07T01:38:49.372Z,100148.63
2023-03-07T01:41:18.135Z,100143.69
2023-03-07T01:43:48.647Z,100157.97
2023-03-07T01:46:37.439Z,100142.31
2023-03-07T01:49:07.715Z,100153.44
2023-03-07T01:51:39.011Z,100151.47
2023-03-07T01:54:07.546Z,100154.78
2023-03-07T01:56:36.063Z,100140.97
2023-03-07T01:59:04.094Z,100152.38
2023-03-07T02:01:32.190Z,100159.63
2023-03-07T02:04:02.310Z,100165.75
2023-03-07T02:06:31.135Z,100152.69
2023-03-07T02:09:00.753Z,100148.09
2023-03-07T02:11:28.935Z,100122.13
2023-03-07T02:13:56.864Z,100128.78
2023-03-07T02:16:24.934Z,100127.44
2023-03-07T02:18:52.837Z,100124.94
2023-03-07T02:21:28.518Z,100130.66
2023-03-07T02:23:58.282Z,100123.94
2023-03-07T02:26:37.501Z,100118.50
2023-03-07T02:29:05.651Z,100128.00
2023-03-07T02:31:34.108Z,100129.25
2023-03-07T02:34:02.368Z,100127.09
2023-03-07T02:36:32.766Z,100120.72
2023-03-07T02:39:09.131Z,100109.31
2023-03-07T02:41:38.846Z,100114.91
2023-03-07T02:44:13.814Z,100108.09
2023-03-07T02:46:42.560Z,100105.97
2023-03-07T02:49:10.596Z,100103.50
2023-03-07T02:51:38.596Z,100093.69
2023-03-07T02:54:08.368Z,100097.69
2023-03-07T02:56:38.222Z,100087.09
2023-03-07T02:59:06.202Z,100090.13
2023-03-07T03:01:34.363Z,100096.47
2023-03-07T03:04:02.401Z,100091.19
2023-03-07T03:06:30.375Z,100082.06
2023-03-07T03:08:58.579Z,100085.84
2023-03-07T03:11:30.817Z,100089.38
2023-03-07T03:14:00.328Z,100077.41
2023-03-07T03:16:29.980Z,100078.47
2023-03-07T03:18:58.148Z,100075.50
2023-03-07T03:21:27.219Z,100065.78
2023-03-07T03:23:58.683Z,100068.03
2023-03-07T03:26:26.862Z,100071.97
2023-03-07T03:28:55.553Z,100072.22
2023-03-07T03:31:25.752Z,100075.69
2023-03-07T03:33:53.907Z,100060.66
2023-03-07T03:36:25.995Z,100065.88
2023-03-07T03:38:57.049Z,100065.97
2023-03-07T03:41:25.550Z,100059.22
2023-03-07T03:43:53.861Z,100059.78
2023-03-07T03:46:23.978Z,100064.31
2023-03-07T03:48:53.359Z,100053.97
2023-03-07T03:51:23.010Z,100045.72
2023-03-07T03:53:51.241Z,100060.16
2023-03-07T03:56:19.989Z,100045.13
2023-03-07T03:58:48.418Z,100036.19
2023-03-07T04:01:16.475Z,100042.31
2023-03-07T04:03:46.932Z,100029.00
2023-03-07T04:06:16.054Z,100041.13
2023-03-07T04:08:44.450Z,100035.47
2023-03-07T04:11:13.052Z,100032.44
2023-03-07T04:13:41.242Z,100046.31
2023-03-07T04:16:09.261Z,100034.09
2023-03-07T04:18:37.565Z,100030.47
2023-03-07T04:21:07.444Z,100032.81
2023-03-07T04:23:35.588Z,100029.00
2023-03-07T04:26:04.115Z,100029.84
2023-03-07T04:28:43.866Z,100028.22
2023-03-07T04:31:16.552Z,100023.22
2023-03-07T04:33:45.764Z,100021.56
2023-03-07T04:36:15.526Z,100020.50
2023-03-07T04:38:43.562Z,100029.13
2023-03-07T04:41:12.805Z,100030.78
2023-03-07T04:43:41.124Z,100035.00
2023-03-07T04:46:09.194Z,100040.44
2023-03-07T04:48:37.233Z,100037.56
2023-03-07T04:51:05.756Z,100041.41
2023-03-07T04:53:35.282Z,100039.59
2023-03-07T04:56:05.522Z,100038.91
2023-03-07T04:58:34.184Z,100045.50
2023-03-07T05:01:02.651Z,100044.66
2023-03-07T05:03:30.736Z,100044.97
2023-03-07T05:06:02.418Z,100043.47
2023-03-07T05:08:31.295Z,100051.00
2023-03-07T05:11:00.681Z,100050.47
2023-03-07T05:13:29.412Z,100049.63
2023-03-07T05:15:58.522Z,100042.97
2023-03-07T05:18:27.370Z,100041.34
2023-03-07T05:20:57.340Z,100041.34
2023-03-07T05:23:25.797Z,100034.53
2023-03-07T05:25:55.221Z,100033.00
2023-03-07T05:28:24.842Z,100040.94
2023-03-07T05:30:53.406Z,100032.63
2023-03-07T05:33:21.931Z,100035.25
2023-03-07T05:35:50.594Z,100033.06
2023-03-07T05:38:19.214Z,100030.03
2023-03-07T05:40:47.467Z,100029.38
2023-03-07T05:43:15.604Z,100027.59
2023-03-07T05:45:44.955Z,100039.28
2023-03-07T05:48:13.024Z,100034.00
2023-03-07T05:50:42.119Z,100041.25
2023-03-07T05:53:10.291Z,100034.00
2023-03-07T05:55:38.301Z,100032.03
2023-03-07T05:58:06.706Z,100030.09
2023-03-07T06:00:34.873Z,100037.06
2023-03-07T06:03:04.660Z,100029.13
2023-03-07T06:05:33.798Z,100037.72
2023-03-07T06:08:03.842Z,100035.06
2023-03-07T06:10:32.657Z,100032.44
2023-03-07T06:13:00.701Z,100033.81
2023-03-07T06:15:29.069Z,100041.44
2023-03-07T06:18:05.947Z,100042.56
2023-03-07T06:20:33.908Z,100047.31
2023-03-07T06:23:01.933Z,100042.34
2023-03-07T06:25:30.380Z,100038.31
2023-03-07T06:28:00.963Z,100032.50
2023-03-07T06:30:31.209Z,100044.69
2023-03-07T06:32:59.596Z,100037.47
2023-03-07T06:35:28.919Z,100034.00
2023-03-07T06:37:56.903Z,100041.78
2023-03-07T06:40:24.896Z,100037.59
2023-03-07T06:42:53.525Z,100032.31
2023-03-07T06:45:21.463Z,100038.44
2023-03-07T06:47:49.738Z,100035.66
2023-03-07T06:50:26.654Z,100039.13
2023-03-07T06:53:04.351Z,100034.97
2023-03-07T06:55:32.490Z,100036.34
2023-03-07T06:58:00.451Z,100040.09
2023-03-07T07:00:28.688Z,100035.97
2023-03-07T07:02:56.871Z,100047.78
2023-03-07T07:05:24.974Z,100037.38
2023-03-07T07:07:52.925Z,100022.94
2023-03-07T07:10:22.455Z,100036.28
2023-03-07T07:12:54.522Z,100026.31
2023-03-07T07:15:22.531Z,100033.00
2023-03-07T07:17:51.696Z,100045.25
2023-03-07T07:20:20.473Z,100038.00
2023-03-07T07:22:48.451Z,100034.16
2023-03-07T07:25:16.554Z,100027.78
2023-03-07T07:27:47.243Z,100041.38
2023-03-07T07:30:15.637Z,100035.97
2023-03-07T07:32:45.057Z,100038.63
2023-03-07T07:35:13.514Z,100039.19
2023-03-07T07:37:41.530Z,100038.81
2023-03-07T07:40:12.012Z,100040.63
2023-03-07T07:42:41.040Z,100038.81
2023-03-07T07:45:21.710Z,100047.16
2023-03-07T07:47:50.523Z,100057.03
2023-03-07T07:50:18.992Z,100063.41
2023-03-07T07:52:47.000Z,100059.38
2023-03-07T07:55:15.398Z,100056.88
2023-03-07T07:57:45.025Z,100065.06
2023-03-07T08:00:19.381Z,100073.28
2023-03-07T08:02:50.404Z,100076.47
2023-03-07T08:05:19.210Z,100082.84
2023-03-07T08:07:47.150Z,100080.91
2023-03-07T08:10:16.049Z,100084.50
2023-03-07T08:12:44.325Z,100086.19
2023-03-07T08:15:12.925Z,100090.09
2023-03-07T08:17:40.872Z,100099.22
2023-03-07T08:20:11.855Z,100101.88
2023-03-07T08:22:40.059Z,100102.69
2023-03-07T08:25:09.176Z,100091.31
2023-03-07T08:27:37.146Z,100096.31
2023-03-07T08:30:05.611Z,100087.28
2023-03-07T08:32:33.600Z,100094.94
2023-03-07T08:35:01.832Z,100091.31
2023-03-07T08:37:31.115Z,100098.94
2023-03-07T08:39:59.305Z,100106.28
2023-03-07T08:42:27.270Z,100108.38
2023-03-07T08:44:55.368Z,100108.94
2023-03-07T08:47:23.365Z,100102.00
2023-03-07T08:49:51.492Z,100095.88
2023-03-07T08:52:19.450Z,100105.72
2023-03-07T08:54:48.772Z,100097.81
2023-03-07T08:57:16.883Z,100111.72
2023-03-07T08:59:44.830Z,100114.75
2023-03-07T09:02:12.994Z,100101.84
2023-03-07T09:04:41.113Z,100106.97
2023-03-07T09:07:09.235Z,100107.78
2023-03-07T09:09:37.699Z,100110.97
2023-03-07T09:12:07.683Z,100121.25
2023-03-07T09:14:41.953Z,100115.84
2023-03-07T09:17:09.917Z,100134.44
2023-03-07T09:19:37.883Z,100119.97
2023-03-07T09:22:06.246Z,100111.66
2023-03-07T09:24:34.359Z,100125.53
2023-03-07T09:27:02.656Z,100133.03
2023-03-07T09:29:32.028Z,100126.94
2023-03-07T09:32:00.092Z,100123.75
2023-03-07T09:34:28.070Z,100117.53
2023-03-07T09:36:58.663Z,100098.66
2023-03-07T09:39:26.770Z,100139.72
2023-03-07T09:42:04.759Z,100130.53
2023-03-07T09:44:46.782Z,100134.72
2023-03-07T09:47:38.090Z,100144.31
2023-03-07T09:50:12.721Z,100138.06
2023-03-07T09:52:40.862Z,100134.16
2023-03-07T09:55:12.156Z,100143.28
2023-03-07T09:57:47.137Z,100146.94
2023-03-07T10:00:20.764Z,100136.50
2023-03-07T10:02:50.688Z,100159.16
2023-03-07T10:05:26.636Z,100154.97
2023-03-07T10:07:54.925Z,100150.78
2023-03-07T10:10:24.872Z,100156.91
2023-03-07T10:12:59.931Z,100161.19
2023-03-07T10:15:45.764Z,100166.03
2023-03-07T10:18:19.144Z,100156.44
2023-03-07T10:20:48.873Z,100168.53
2023-03-07T10:23:31.122Z,100153.78
2023-03-07T10:25:59.990Z,100148.50
2023-03-07T10:28:28.856Z,100174.34
2023-03-07T10:31:00.784Z,100169.88
2023-03-07T10:33:28.809Z,100169.31
2023-03-07T10:36:03.157Z,100172.19
2023-03-07T10:38:36.332Z,100172.38
2023-03-07T10:41:06.748Z,100149.91
2023-03-07T10:43:40.250Z,100173.63
2023-03-07T10:46:26.587Z,100190.59
2023-03-07T10:49:03.579Z,100174.91
2023-03-07T10:51:58.201Z,100155.16
2023-03-07T10:54:35.196Z,100163.16
2023-03-07T10:57:08.749Z,100200.28
2023-03-07T10:59:38.916Z,100180.78
2023-03-07T11:02:31.478Z,100205.41
2023-03-07T11:05:00.652Z,100205.22
2023-03-07T11:07:29.718Z,100216.88
2023-03-07T11:10:36.984Z,100174.00
2023-03-07T11:13:08.808Z,100209.16
2023-03-07T11:15:38.382Z,100210.66
2023-03-07T11:18:17.716Z,100204.88
2023-03-07T11:20:49.735Z,100166.41
2023-03-07T11:23:23.526Z,100195.91
2023-03-07T11:25:53.135Z,100166.59
2023-03-07T11:28:31.173Z,100192.94
2023-03-07T11:31:21.515Z,100197.53
2023-03-07T11:34:00.355Z,100201.41
2023-03-07T11:36:33.037Z,100186.44
2023-03-07T11:39:03.359Z,100225.13
2023-03-07T11:41:36.369Z,100200.00
2023-03-07T11:44:33.323Z,100213.59
2023-03-07T11:47:20.494Z,100208.09
2023-03-07T11:50:05.635Z,100201.28
2023-03-07T11:52:52.670Z,100198.22
2023-03-07T11:55:28.744Z,100198.69
2023-03-07T11:58:21.778Z,100224.19
2023-03-07T12:00:56.104Z,100206.38
2023-03-07T12:03:45.744Z,100225.94
2023-03-07T12:06:26.703Z,100209.50
2023-03-07T12:09:19.180Z,100206.91
2023-03-07T12:12:00.960Z,100208.47
2023-03-07T12:14:33.580Z,100214.47
2023-03-07T12:17:11.427Z,100230.28
2023-03-07T12:19:53.828Z,100211.22
2023-03-07T12:22:29.641Z,100230.81
2023-03-07T12:25:24.881Z,100217.13
2023-03-07T12:27:58.832Z,100225.06
2023-03-07T12:30:28.353Z,100197.88
2023-03-07T12:32:56.423Z,100200.84
2023-03-07T12:35:25.871Z,100207.19
2023-03-07T12:37:58.254Z,100236.13
2023-03-07T12:40:27.872Z,100215.94
2023-03-07T12:42:57.629Z,100221.59
2023-03-07T12:45:27.257Z,100218.50
2023-03-07T12:48:02.188Z,100208.06
2023-03-07T13:08:42.127Z,100191.94
2023-03-07T13:14:10.933Z,100161.38
2023-03-07T13:16:58.662Z,100171.31
2023-03-07T13:20:25.779Z,100156.59
2023-03-07T13:23:48.650Z,100182.31
2023-03-07T13:26:26.461Z,100187.72
2023-03-07T13:28:57.552Z,100175.13
2023-03-07T13:31:39.529Z,100179.88
2023-03-07T13:34:51.738Z,100183.75
2023-03-07T13:37:56.824Z,100180.59
2023-03-07T13:40:59.457Z,100175.78
2023-03-07T13:43:57.943Z,100196.00
2023-03-07T13:46:32.140Z,100190.06
2023-03-07T13:49:03.407Z,100163.63
2023-03-07T13:51:31.826Z,100161.88
2023-03-07T13:54:03.966Z,100171.97
2023-03-07T13:56:32.546Z,100174.44
2023-03-07T13:59:02.757Z,100178.56
2023-03-07T14:01:32.986Z,100168.53
2023-03-07T14:04:05.383Z,100166.81
2023-03-07T14:06:34.841Z,100169.34
2023-03-07T14:09:05.118Z,100155.88
2023-03-07T14:11:40.838Z,100152.66
2023-03-07T14:14:38.324Z,100173.06
2023-03-07T14:17:23.917Z,100182.22
2023-03-07T14:19:58.055Z,100169.72
2023-03-07T14:22:36.787Z,100167.34
2023-03-07T14:25:18.963Z,100169.72
2023-03-07T14:27:57.956Z,100173.06
2023-03-07T14:30:28.413Z,100163.09
2023-03-07T14:32:56.794Z,100152.44
2023-03-07T14:35:40.302Z,100143.47
2023-03-07T14:38:09.487Z,100153.53
2023-03-07T14:40:51.207Z,100137.25
2023-03-07T14:43:44.631Z,100126.13
2023-03-07T14:46:20.664Z,100130.75
2023-03-07T14:49:01.952Z,100141.31
2023-03-07T14:51:32.926Z,100136.59
2023-03-07T14:54:01.034Z,100138.75
2023-03-07T14:56:30.075Z,100137.06
2023-03-07T14:59:02.360Z,100157.16
2023-03-07T15:01:37.704Z,100143.19
2023-03-07T15:05:04.551Z,100150.25
2023-03-07T15:08:01.792Z,100139.31
2023-03-07T15:11:28.351Z,100152.81
2023-03-07T15:13:57.909Z,100149.50
2023-03-07T16:06:41.023Z,100118.06
2023-03-07T16:09:13.602Z,100105.03
2023-03-07T16:11:41.797Z,100094.88
2023-03-07T16:14:15.700Z,100104.91
2023-03-07T16:16:44.428Z,100105.91
2023-03-07T16:19:12.518Z,100099.94
2023-03-07T16:21:40.469Z,100107.06
2023-03-07T16:24:09.111Z,100104.97
2023-03-07T16:26:38.518Z,100108.97
2023-03-07T16:29:07.249Z,100100.97
2023-03-07T16:31:35.450Z,100097.84
2023-03-07T16:34:03.621Z,100084.91
2023-03-07T16:36:31.616Z,100082.78
2023-03-07T16:38:59.894Z,100085.97
2023-03-07T16:41:27.992Z,100082.81
2023-03-07T17:22:00.145Z,100070.03
2023-03-07T17:24:53.211Z,100071.66
2023-03-07T17:27:33.930Z,100062.34
2023-03-07T17:30:06.606Z,100050.38
2023-03-07T17:32:35.032Z,100064.00
2023-03-07T17:35:03.422Z,100060.84
2023-03-07T17:37:31.463Z,100060.19
2023-03-07T17:40:01.081Z,100054.88
2023-03-07T17:42:29.167Z,100061.31
2023-03-07T17:44:57.144Z,100056.31
2023-03-07T17:47:25.137Z,100053.31
2023-03-07T17:49:53.062Z,100044.81
2023-03-07T17:52:21.204Z,100045.66
2023-03-07T17:54:51.200Z,100015.75
2023-03-07T17:57:21.148Z,100039.63
2023-03-07T17:59:49.167Z,100035.63
2023-03-07T18:02:20.079Z,100032.50
2023-03-07T18:04:48.453Z,100047.56
2023-03-07T18:07:18.275Z,100032.41
2023-03-07T18:09:47.354Z,100035.66
2023-03-07T18:12:17.758Z,100023.66
2023-03-07T18:14:47.004Z,100028.66
2023-03-07T18:17:15.373Z,100022.69
2023-03-07T18:19:43.538Z,100009.72
2023-03-07T18:22:12.664Z,100011.13
2023-03-07T18:24:40.666Z,100008.88
2023-03-07T18:27:10.285Z,100018.47
2023-03-07T18:29:38.391Z,100028.13
2023-03-07T18:32:08.113Z,100018.00
2023-03-07T18:34:36.161Z,100001.53
2023-03-07T18:37:04.200Z,99993.69
2023-03-07T18:39:33.511Z,99970.09
2023-03-07T18:42:01.586Z,100001.44
2023-03-07T18:44:31.271Z,100007.31
2023-03-07T18:46:59.467Z,100006.75
2023-03-07T18:49:28.923Z,99993.91
2023-03-07T18:51:57.080Z,100000.16
2023-03-07T18:54:25.018Z,99991.16
2023-03-07T18:56:52.993Z,99997.13
2023-03-07T18:59:20.989Z,99987.31
2023-03-07T19:01:52.923Z,99979.13
2023-03-07T19:04:21.044Z,99992.31
2023-03-07T19:06:50.403Z,99976.09
2023-03-07T19:09:19.668Z,99975.25
2023-03-07T19:11:47.633Z,99966.66
2023-03-07T19:14:15.644Z,99964.97
2023-03-07T19:16:43.691Z,99961.50
2023-03-07T19:19:12.953Z,99961.09
2023-03-07T19:21:41.096Z,99951.06
2023-03-07T19:24:11.366Z,99952.72
2023-03-07T19:26:40.927Z,99936.19
2023-03-07T19:29:09.828Z,99946.47
2023-03-07T19:31:38.047Z,99937.97
2023-03-07T19:34:06.418Z,99941.31
2023-03-07T19:36:35.256Z,99929.47
2023-03-07T19:39:03.299Z,99931.88
2023-03-07T19:41:33.143Z,99940.03
2023-03-07T19:44:01.231Z,99936.28
2023-03-07T19:46:29.299Z,99937.09
2023-03-07T19:48:59.286Z,99934.84
2023-03-07T19:51:27.451Z,99941.47
2023-03-07T19:53:57.461Z,99921.25
2023-03-07T19:56:27.258Z,99918.13
2023-03-07T19:58:56.846Z,99909.50
2023-03-07T20:01:24.992Z,99898.34
2023-03-07T20:03:53.131Z,99893.88
2023-03-07T20:06:23.600Z,99880.47
2023-03-07T20:08:52.433Z,99884.16
2023-03-07T20:11:21.315Z,99869.00
2023-03-07T20:13:52.257Z,99857.31
2023-03-07T20:16:22.158Z,99894.44
2023-03-07T20:18:51.425Z,99883.56
2023-03-07T20:21:19.746Z,99883.25
2023-03-07T20:23:48.398Z,99867.41
2023-03-07T20:26:17.496Z,99864.09
2023-03-07T20:28:45.539Z,99857.69
2023-03-07T20:31:13.621Z,99853.59
2023-03-07T20:33:46.001Z,99832.09
2023-03-07T20:36:16.372Z,99831.78
2023-03-07T20:38:44.455Z,99831.09
2023-03-07T20:41:13.522Z,99826.03
2023-03-07T20:43:41.598Z,99816.47
2023-03-07T20:46:12.656Z,99816.16
2023-03-07T20:48:41.033Z,99807.38
2023-03-07T20:51:11.494Z,99803.56
2023-03-07T20:53:39.548Z,99797.16
2023-03-07T20:56:08.488Z,99801.75
2023-03-07T20:58:36.561Z,99788.00
2023-03-07T21:01:04.681Z,99761.00
2023-03-07T21:03:32.790Z,99797.44
2023-03-07T21:06:01.341Z,99780.56
2023-03-07T21:08:31.765Z,99785.34
2023-03-07T21:11:00.524Z,99773.66
2023-03-07T21:13:28.726Z,99766.06
2023-03-07T21:15:58.261Z,99747.19
2023-03-07T21:18:26.345Z,99766.44
2023-03-07T21:20:54.355Z,99757.81
2023-03-07T21:23:22.282Z,99763.09
2023-03-07T21:25:51.934Z,99739.88
2023-03-07T21:28:19.853Z,99759.13
2023-03-07T21:30:49.557Z,99740.94
2023-03-07T21:33:17.830Z,99717.00
2023-03-07T21:35:46.075Z,99718.69
2023-03-07T21:38:14.072Z,99701.31
2023-03-07T21:40:42.516Z,99707.28
2023-03-07T21:43:14.412Z,99695.34
2023-03-07T21:45:43.189Z,99702.28
2023-03-07T21:48:11.349Z,99678.69
2023-03-07T21:50:42.895Z,99670.94
2023-03-07T21:53:11.026Z,99675.25
2023-03-07T21:55:41.483Z,99663.06
2023-03-07T21:58:20.253Z,99665.22
2023-03-07T22:00:48.335Z,99646.59
2023-03-07T22:03:16.460Z,99629.38
2023-03-07T22:05:44.972Z,99612.31
2023-03-07T22:08:16.035Z,99606.19
2023-03-07T22:10:44.080Z,99603.25
2023-03-07T22:13:13.371Z,99606.59
2023-03-07T22:15:42.957Z,99599.34
2023-03-07T22:18:10.860Z,99594.22
2023-03-07T22:20:39.676Z,99573.41
2023-03-07T22:23:07.612Z,99562.84
2023-03-07T22:25:35.644Z,99559.88
2023-03-07T22:28:04.037Z,99568.00
2023-03-07T22:30:33.417Z,99556.91
2023-03-07T22:33:01.706Z,99565.34
2023-03-07T22:35:29.682Z,99559.03
2023-03-07T22:37:57.648Z,99548.78
2023-03-07T22:40:26.065Z,99557.41
2023-03-07T22:42:54.144Z,99556.41
2023-03-07T22:45:22.072Z,99548.47
2023-03-07T22:47:51.608Z,99542.19
2023-03-07T22:50:19.670Z,99536.41
2023-03-07T22:52:47.609Z,99541.53
2023-03-07T22:55:15.807Z,99542.88
2023-03-07T22:57:43.784Z,99532.31
2023-03-07T23:00:13.112Z,99507.03
2023-03-07T23:02:41.019Z,99516.44
2023-03-07T23:05:11.116Z,99498.13
2023-03-07T23:07:39.961Z,99487.75
2023-03-07T23:10:08.250Z,99486.09
2023-03-07T23:12:36.453Z,99479.16
2023-03-07T23:15:04.652Z,99482.78
2023-03-07T23:17:32.677Z,99494.47
2023-03-07T23:20:00.986Z,99483.75
2023-03-07T23:22:30.325Z,99477.50
2023-03-07T23:24:58.471Z,99468.59
2023-03-07T23:27:27.712Z,99456.38
2023-03-07T23:29:55.658Z,99429.59
2023-03-07T23:32:23.900Z,99456.38
2023-03-07T23:34:51.894Z,99443.81
2023-03-07T23:37:20.156Z,99436.22
2023-03-07T23:39:49.453Z,99430.47
2023-03-07T23:42:19.290Z,99432.25
2023-03-07T23:44:49.088Z,99449.09
2023-03-07T23:47:17.152Z,99402.53
2023-03-07T23:49:45.092Z,99416.91
2023-03-07T23:52:13.088Z,99406.69
2023-03-07T23:54:42.054Z,99410.50
2023-03-07T23:57:11.445Z,99405.53
2023-03-07T23:59:39.663Z,99410.31
